ENVAENST

Guest
Details From ENVA - Vaernes
To ENST - STOKKA
Flight Number -
Tags generated
Created
Modified
Stats Distance 155 nm / 288 km
Max Altitude 15,000 ft / 4,572 m
Waypoints 5
Social Downloads 1
Likes 0
Share VATSIM

Download

Looking for another format? Having issues loading an existing format? Contact us
Advertisement - Login to hide

Notes

Basic altitude profile: - Ascent Rate: 2500ft/min - Ascent Speed: 250kts - Cruise Altitude: 35000ft - Cruise Speed: 420kts - Descent Rate: 1500ft/min - Descent Speed: 250kts Options: - Use NATs: yes - Use PACOTS: yes - Use low airways: yes - Use high airways: no

Route

ENVA NAMOX M609 BNN ENST

ID Type Via Altitude Latitude Longitude Leg Dist Tot Dist Heading (true) Name
O ENVA APT - 0 ft / 0 m 63.45760˚ 10.91798˚ - 0 nm - Vaernes
NAMOX FIX - 15,000 ft / 4,572 m 64.18611˚ 11.32111˚ 45 nm 45 nm 14° / 14° -
BINTU FIX M609 (AWY-LO) 11,700 ft / 3,566 m 65.00000˚ 11.88278˚ 50 nm 96 nm 16° / 17° -
BNN VOR M609 (AWY-LO) 8,000 ft / 2,438 m 65.45705˚ 12.21434˚ 28 nm 124 nm 17° / 17° BRONNOY VOR-DME
O ENST APT - 0 ft / 0 m 65.95684˚ 12.46897˚ 30 nm 155 nm 12° / 12° STOKKA

Altitude Profile

Advertisement - Login to hide

ENVA

Details ICAO ENVA (TRD)
Name Vaernes
Region Norway
Timezone Europe/Oslo (UTC+2.0)
Stats Elevation 56 ft / 17 m (AMSL)
Location 63.457605° 10.917980°
Runways 1
Magnetic Variation 3.578° E

METAR

ENVA 221620Z 33009KT 9999 FEW013 BKN023 12/07 Q1025 NOSIG RMK WIND 670FT 32013KT

Decode

TAF

TAF AMD ENVA 221528Z 2215/2312 32010KT 9999 SCT015 BKN025 BECMG 2216/2218 VRB07KT

Decode

Departure Runways

ID Width Length Bearing (true) Bearing (mag) Surface Threshold Offset Overrun Length
09 148 ft / 45 m 9,356 ft / 2,852 m 90.21° 86.63° Asphalt 984 ft / 300 m 0 ft / 0 m
27 148 ft / 45 m 9,356 ft / 2,852 m 270.26° 266.68° Asphalt 689 ft / 210 m 0 ft / 0 m

ENST

Details ICAO ENST (SSJ)
Name STOKKA
Region Norway
Timezone Europe/Oslo (UTC+2.0)
Stats Elevation 56 ft / 17 m (AMSL)
Location 65.956843° 12.468965°
Runways 1
Magnetic Variation 4.597° E

METAR

ENST 221620Z 31006KT 250V010 9999 FEW020 10/04 Q1027 RMK WIND 300FT 31010KT

Decode

TAF

Not found

Destination Runways

ID Width Length Bearing (true) Bearing (mag) Surface Threshold Offset Overrun Length
03 98 ft / 30 m 3,551 ft / 1,082 m 24.76° 20.16° Asphalt 161 ft / 49 m 0 ft / 0 m
21 98 ft / 30 m 3,551 ft / 1,082 m 204.77° 200.17° Asphalt 177 ft / 54 m 0 ft / 0 m

Approach Navaids

Runway Type Ident Frequency Range Bearing (true) Bearing (mag) Slope Elevation
21 Localiser ST 109.90 MHz 18 nm / 33 km 198.13° 193.54° - 56 ft / 17 m (AMSL)

Popular Alternatives